createdAt,value
2019-05-02T00:02:37.812Z,3.10
2019-05-02T00:07:43.103Z,4.60
2019-05-02T00:12:47.035Z,3.45
2019-05-02T00:17:50.487Z,4.40
2019-05-02T00:22:53.966Z,3.55
2019-05-02T00:27:57.586Z,3.15
2019-05-02T00:33:01.046Z,2.42
2019-05-02T00:38:04.505Z,3.40
2019-05-02T00:43:08.092Z,2.95
2019-05-02T00:48:19.326Z,2.80
2019-05-02T00:53:21.305Z,3.05
2019-05-02T00:58:27.269Z,3.05
2019-05-02T01:03:32.097Z,3.02
2019-05-02T01:08:36.900Z,2.50
2019-05-02T01:13:40.461Z,3.67
2019-05-02T01:18:44.585Z,4.12
2019-05-02T01:23:48.040Z,3.27
2019-05-02T01:29:05.098Z,2.95
2019-05-02T01:34:21.835Z,2.90
2019-05-02T01:39:25.729Z,2.87
2019-05-02T01:44:31.035Z,3.10
2019-05-02T01:49:34.368Z,2.87
2019-05-02T01:54:40.647Z,2.90
2019-05-02T01:59:42.996Z,2.83
2019-05-02T02:04:46.454Z,2.62
2019-05-02T02:09:49.907Z,2.62
2019-05-02T02:14:55.454Z,2.45
2019-05-02T02:20:00.184Z,2.77
2019-05-02T02:25:09.247Z,2.95
2019-05-02T02:30:17.828Z,3.43
2019-05-02T02:35:18.315Z,3.08
2019-05-02T02:40:32.914Z,2.90
2019-05-02T02:45:51.971Z,3.65
2019-05-02T02:50:51.694Z,3.15
2019-05-02T02:56:01.154Z,2.72
2019-05-02T03:01:00.495Z,3.05
2019-05-02T03:06:05.686Z,2.80
2019-05-02T03:11:11.004Z,2.52
2019-05-02T03:16:16.139Z,2.37
2019-05-02T03:21:22.309Z,2.50
2019-05-02T03:26:24.847Z,2.52
2019-05-02T03:31:30.875Z,2.22
2019-05-02T03:36:43.898Z,2.47
2019-05-02T03:41:47.412Z,2.92
2019-05-02T03:46:54.486Z,2.45
2019-05-02T03:52:02.632Z,2.77
2019-05-02T03:57:01.421Z,2.87
2019-05-02T04:02:04.936Z,2.70
2019-05-02T04:07:08.259Z,2.77
2019-05-02T04:12:18.869Z,3.00
2019-05-02T04:17:17.786Z,2.67
2019-05-02T04:22:21.222Z,2.85
2019-05-02T04:27:27.838Z,3.60
2019-05-02T04:32:30.828Z,2.75
2019-05-02T04:37:40.505Z,2.65
2019-05-02T04:42:39.288Z,2.40
2019-05-02T04:47:57.523Z,2.45
2019-05-02T04:52:53.604Z,2.77
2019-05-02T04:57:53.306Z,5.28
2019-05-02T05:02:58.061Z,2.50
2019-05-02T05:08:01.598Z,2.77
2019-05-02T05:13:05.052Z,3.80
2019-05-02T05:18:10.481Z,2.50
2019-05-02T05:23:18.422Z,2.50
2019-05-02T05:28:20.515Z,2.98
2019-05-02T05:33:23.968Z,2.30
2019-05-02T05:38:28.631Z,2.37
2019-05-02T05:43:32.606Z,2.90
2019-05-02T05:48:39.203Z,2.33
2019-05-02T05:53:41.241Z,2.20
2019-05-02T05:58:50.554Z,2.15
2019-05-02T06:03:49.872Z,2.15
2019-05-02T06:08:54.131Z,2.83
2019-05-02T06:13:58.514Z,2.87
2019-05-02T06:19:01.974Z,2.95
2019-05-02T06:24:05.429Z,2.15
2019-05-02T06:29:13.059Z,3.55
2019-05-02T06:34:14.137Z,1.98
2019-05-02T06:39:17.596Z,2.65
2019-05-02T06:44:24.059Z,1.87
2019-05-02T06:49:26.227Z,5.10
2019-05-02T06:54:29.692Z,12.85
2019-05-02T06:59:33.151Z,15.80
2019-05-02T07:04:36.613Z,25.02
2019-05-02T07:09:41.551Z,32.13
2019-05-02T07:14:45.873Z,33.60
2019-05-02T07:19:51.002Z,30.25
2019-05-02T07:24:54.465Z,26.87
2019-05-02T07:29:59.652Z,24.60
2019-05-02T07:35:03.639Z,24.30
2019-05-02T07:40:12.166Z,20.62
2019-05-02T07:45:14.855Z,22.87
2019-05-02T07:50:18.491Z,16.33
2019-05-02T07:55:21.956Z,19.70
2019-05-02T08:00:25.486Z,16.95
2019-05-02T08:05:28.954Z,19.32
2019-05-02T08:10:32.418Z,18.35
2019-05-02T08:15:35.884Z,17.07
2019-05-02T08:20:39.346Z,29.27
2019-05-02T08:25:45.372Z,38.60
2019-05-02T08:30:52.569Z,28.90
2019-05-02T08:35:56.103Z,28.77
2019-05-02T08:40:59.566Z,27.07
2019-05-02T08:46:03.031Z,25.27
2019-05-02T08:51:06.496Z,23.85
2019-05-02T08:56:09.960Z,28.35
2019-05-02T09:01:15.345Z,25.72
2019-05-02T09:06:22.354Z,19.95
2019-05-02T09:11:23.819Z,20.55
2019-05-02T09:16:29.131Z,19.12
2019-05-02T09:21:36.003Z,21.33
2019-05-02T09:26:38.795Z,16.02
2019-05-02T09:31:46.092Z,18.07
2019-05-02T09:36:47.617Z,21.70
2019-05-02T09:41:52.735Z,17.77
2019-05-02T09:46:57.169Z,20.25
2019-05-02T09:52:01.403Z,20.92
2019-05-02T09:57:05.866Z,19.15
2019-05-02T10:02:09.404Z,17.62
2019-05-02T10:07:15.298Z,17.15
2019-05-02T10:12:18.072Z,13.95
2019-05-02T10:17:23.109Z,16.87
2019-05-02T10:22:33.732Z,16.00
2019-05-02T10:27:32.297Z,15.40
2019-05-02T10:32:35.743Z,15.03
2019-05-02T10:37:40.380Z,15.23
2019-05-02T10:42:43.848Z,16.07
2019-05-02T10:47:47.308Z,14.13
2019-05-02T10:52:52.633Z,14.53
2019-05-02T10:57:55.955Z,15.50
2019-05-02T11:03:17.356Z,14.35
2019-05-02T11:08:22.447Z,14.25
2019-05-02T11:13:27.695Z,12.90
2019-05-02T11:18:42.034Z,17.52
2019-05-02T11:23:38.079Z,18.20
2019-05-02T11:28:41.649Z,19.07
2019-05-02T11:33:45.066Z,16.23
2019-05-02T11:38:55.627Z,14.93
2019-05-02T11:43:55.749Z,15.38
2019-05-02T11:48:58.917Z,14.13
2019-05-02T11:54:05.199Z,12.85
2019-05-02T11:59:07.559Z,12.13
2019-05-02T12:04:12.975Z,10.88
2019-05-02T12:09:17.374Z,16.03
2019-05-02T12:14:22.860Z,10.40
2019-05-02T12:19:26.022Z,12.82
2019-05-02T12:24:29.480Z,11.30
2019-05-02T12:29:33.497Z,11.40
2019-05-02T12:34:37.185Z,10.23
2019-05-02T12:39:42.558Z,8.78
2019-05-02T12:44:45.821Z,10.03
2019-05-02T12:49:49.277Z,9.70
2019-05-02T12:54:52.743Z,9.05
2019-05-02T12:59:56.261Z,8.08
2019-05-02T13:04:59.722Z,10.70
2019-05-02T13:10:03.849Z,6.10
2019-05-02T13:15:08.045Z,10.43
2019-05-02T13:20:13.582Z,6.00
2019-05-02T13:25:18.856Z,4.23
2019-05-02T13:30:26.529Z,7.07
2019-05-02T13:35:33.750Z,6.55
2019-05-02T13:40:41.794Z,4.90
2019-05-02T13:45:55.966Z,5.28
2019-05-02T13:50:59.576Z,8.35
2019-05-02T13:56:23.867Z,5.75
2019-05-02T14:01:27.497Z,3.95
2019-05-02T14:06:35.720Z,3.62
2019-05-02T14:11:41.633Z,6.08
2019-05-02T14:16:45.876Z,3.37
2019-05-02T14:21:49.333Z,6.58
2019-05-02T14:26:52.784Z,6.58
2019-05-02T14:31:56.236Z,5.50
2019-05-02T14:37:01.926Z,2.80
2019-05-02T14:42:05.241Z,3.75
2019-05-02T14:47:10.019Z,2.40
2019-05-02T14:52:14.016Z,5.35
2019-05-02T14:57:25.484Z,6.58
2019-05-02T15:02:32.758Z,6.78
2019-05-02T15:07:38.432Z,4.80
2019-05-02T15:12:41.963Z,3.95
2019-05-02T15:17:45.529Z,2.83
2019-05-02T15:22:48.975Z,3.30
2019-05-02T15:27:58.185Z,4.50
2019-05-02T15:33:02.961Z,6.45
2019-05-02T15:38:07.011Z,2.55
2019-05-02T15:43:12.466Z,3.40
2019-05-02T15:48:22.569Z,3.83
2019-05-02T15:53:28.635Z,3.00
2019-05-02T15:58:32.472Z,4.33
2019-05-02T16:03:46.182Z,5.05
2019-05-02T16:08:48.821Z,4.40
2019-05-02T16:13:55.855Z,4.85
2019-05-02T16:18:57.830Z,6.65
2019-05-02T16:24:22.573Z,5.47
2019-05-02T16:29:28.407Z,4.75
2019-05-02T16:34:32.441Z,4.85
2019-05-02T16:39:36.113Z,2.60
2019-05-02T16:44:39.573Z,10.30
2019-05-02T16:49:43.468Z,3.22
2019-05-02T16:54:46.924Z,2.77
2019-05-02T16:59:53.877Z,2.08
2019-05-02T17:05:00.264Z,2.58
2019-05-02T17:10:02.956Z,3.20
2019-05-02T17:15:26.393Z,4.30
2019-05-02T17:20:29.556Z,1.82
2019-05-02T17:25:33.012Z,2.58
2019-05-02T17:30:38.875Z,5.37
2019-05-02T17:35:49.297Z,2.52
2019-05-02T17:40:46.996Z,4.55
2019-05-02T17:45:50.453Z,2.77
2019-05-02T17:51:04.165Z,6.58
2019-05-02T17:56:13.126Z,3.55
2019-05-02T18:01:14.695Z,4.90
2019-05-02T18:06:30.105Z,6.87
2019-05-02T18:11:23.399Z,5.70
2019-05-02T18:16:27.123Z,5.87
2019-05-02T18:21:32.259Z,9.53
2019-05-02T18:26:35.913Z,5.08
2019-05-02T18:31:44.967Z,2.90
2019-05-02T18:36:44.556Z,3.80
2019-05-02T18:41:48.013Z,2.75
2019-05-02T18:46:51.875Z,5.00
2019-05-02T18:51:57.392Z,3.08
2019-05-02T18:57:02.402Z,4.85
2019-05-02T19:02:06.266Z,2.20
2019-05-02T19:07:12.759Z,1.82
2019-05-02T19:12:22.485Z,2.10
2019-05-02T19:17:21.932Z,2.25
2019-05-02T19:22:25.469Z,2.43
2019-05-02T19:27:46.534Z,4.83
2019-05-02T19:32:50.145Z,1.85
2019-05-02T19:37:55.073Z,1.98
2019-05-02T19:43:03.367Z,4.50
2019-05-02T19:48:03.900Z,1.87
2019-05-02T19:53:14.953Z,2.87
2019-05-02T19:58:13.073Z,2.62
2019-05-02T20:03:21.876Z,4.08
2019-05-02T20:08:24.513Z,3.65
2019-05-02T20:13:29.597Z,4.47
2019-05-02T20:18:34.989Z,1.90
2019-05-02T20:23:37.320Z,2.62
2019-05-02T20:28:42.257Z,2.37
2019-05-02T20:33:45.877Z,2.62
2019-05-02T20:38:49.333Z,2.42
2019-05-02T20:43:52.788Z,2.37
2019-05-02T20:48:56.248Z,2.65
2019-05-02T20:54:01.839Z,3.67
2019-05-02T20:59:05.259Z,3.00
2019-05-02T21:04:08.713Z,2.52
2019-05-02T21:09:30.078Z,2.30
2019-05-02T21:14:33.531Z,4.35
2019-05-02T21:19:39.124Z,3.10
2019-05-02T21:24:42.575Z,1.98
2019-05-02T21:29:46.027Z,2.05
2019-05-02T21:34:49.480Z,2.52
2019-05-02T21:39:53.221Z,1.98
2019-05-02T21:44:56.676Z,1.90
2019-05-02T21:50:07.488Z,2.65
2019-05-02T21:55:18.681Z,2.60
2019-05-02T22:00:26.831Z,2.40
2019-05-02T22:05:31.686Z,1.57
2019-05-02T22:10:35.219Z,2.67
2019-05-02T22:15:38.676Z,2.60
2019-05-02T22:20:42.804Z,1.02
2019-05-02T22:25:46.364Z,1.82
2019-05-02T22:30:49.821Z,1.32
2019-05-02T22:35:53.275Z,1.65
2019-05-02T22:40:58.378Z,1.70
2019-05-02T22:46:03.477Z,2.70
2019-05-02T22:51:06.936Z,1.22
2019-05-02T22:56:11.759Z,1.47
2019-05-02T23:01:15.571Z,1.77
2019-05-02T23:06:19.030Z,1.55
2019-05-02T23:11:24.506Z,1.70
2019-05-02T23:16:27.805Z,1.55
2019-05-02T23:21:32.565Z,2.05
2019-05-02T23:26:37.827Z,2.58
2019-05-02T23:31:42.261Z,2.37
2019-05-02T23:36:45.921Z,0.98
2019-05-02T23:41:49.398Z,1.57
2019-05-02T23:46:52.833Z,1.45
2019-05-02T23:51:56.294Z,1.22
2019-05-02T23:56:59.748Z,2.55
